Time;durP1;ratioP1;P1;durP2;ratioP2;P2;SDS_P1;SDS_P2;PMS_P1;PMS_P2;Temp;Humidity;BMP_temperature;BMP_pressure;BME280_temperature;BME280_humidity;BME280_pressure;Samples;Min_cycle;Max_cycle;Signal;HPM_P1;HPM_P2
2023/11/28 00:01:16;;;;;;;7.30;3.13;;;;;;;;;;10558648;27;20032;-77
2023/11/28 00:06:19;;;;;;;7.07;2.85;;;;;;;;;;10553307;27;20501;-77
2023/11/28 00:11:23;;;;;;;7.28;2.95;;;;;;;;;;10550364;27;20032;-76
2023/11/28 00:16:27;;;;;;;4.57;1.92;;;;;;;;;;10539748;27;20118;-77
2023/11/28 00:21:31;;;;;;;4.68;1.85;;;;;;;;;;10539150;27;22392;-78
2023/11/28 00:26:34;;;;;;;3.88;2.00;;;;;;;;;;10537562;27;20100;-77
2023/11/28 00:31:39;;;;;;;2.08;0.90;;;;;;;;;;10543513;27;22379;-77
2023/11/28 00:36:42;;;;;;;1.60;1.00;;;;;;;;;;10550710;27;20444;-76
2023/11/28 00:41:45;;;;;;;0.93;0.75;;;;;;;;;;10553019;28;20111;-77
2023/11/28 00:46:50;;;;;;;1.20;1.00;;;;;;;;;;10555331;27;20190;-78
2023/11/28 00:51:57;;;;;;;1.23;0.80;;;;;;;;;;10554222;27;20032;-78
2023/11/28 00:57:00;;;;;;;0.68;0.55;;;;;;;;;;10532004;28;20043;-77
2023/11/28 01:02:08;;;;;;;0.50;0.50;;;;;;;;;;10550045;28;20052;-77
2023/11/28 01:07:12;;;;;;;0.73;0.50;;;;;;;;;;10543246;28;20464;-77
2023/11/28 01:12:15;;;;;;;0.23;0.23;;;;;;;;;;10536066;27;20078;-77
2023/11/28 01:17:19;;;;;;;0.70;0.30;;;;;;;;;;10531759;28;20617;-78
2023/11/28 01:22:22;;;;;;;0.57;0.40;;;;;;;;;;10538670;27;20047;-77
2023/11/28 01:27:25;;;;;;;0.98;0.60;;;;;;;;;;10553875;28;20059;-76
2023/11/28 01:32:29;;;;;;;0.50;0.20;;;;;;;;;;10531104;27;20492;-76
2023/11/28 01:37:33;;;;;;;0.20;0.20;;;;;;;;;;10546244;27;20053;-76
2023/11/28 01:42:36;;;;;;;0.30;0.20;;;;;;;;;;10511897;28;20641;-76
2023/11/28 01:47:40;;;;;;;0.32;0.32;;;;;;;;;;10510719;28;20148;-76
2023/11/28 01:52:43;;;;;;;0.25;0.25;;;;;;;;;;10528673;28;20599;-76
2023/11/28 01:57:46;;;;;;;0.20;0.10;;;;;;;;;;10534080;28;20112;-76
2023/11/28 02:02:51;;;;;;;0.00;0.00;;;;;;;;;;10531431;28;20035;-76
2023/11/28 02:07:57;;;;;;;0.20;0.13;;;;;;;;;;10515114;28;20044;-77
2023/11/28 02:13:01;;;;;;;0.10;0.10;;;;;;;;;;10551845;28;20345;-77
2023/11/28 02:18:06;;;;;;;0.10;0.10;;;;;;;;;;10529185;28;20127;-76
2023/11/28 02:23:09;;;;;;;0.10;0.10;;;;;;;;;;10549006;28;20063;-77
2023/11/28 02:28:18;;;;;;;0.17;0.15;;;;;;;;;;10568601;27;20047;-76
2023/11/28 02:33:20;;;;;;;0.10;0.10;;;;;;;;;;10552843;28;20035;-77
2023/11/28 02:38:23;;;;;;;0.00;0.00;;;;;;;;;;10534420;28;20151;-77
2023/11/28 02:43:30;;;;;;;0.00;0.00;;;;;;;;;;10539781;28;20127;-76
2023/11/28 02:48:34;;;;;;;0.10;0.10;;;;;;;;;;10539147;27;20039;-77
2023/11/28 02:53:38;;;;;;;0.08;0.08;;;;;;;;;;10564461;28;20075;-79
2023/11/28 02:58:44;;;;;;;0.10;0.10;;;;;;;;;;10540991;27;20047;-78
2023/11/28 03:03:47;;;;;;;0.08;0.08;;;;;;;;;;10558794;27;20101;-76
2023/11/28 03:08:51;;;;;;;0.47;0.03;;;;;;;;;;10522799;27;20085;-75
2023/11/28 03:13:55;;;;;;;0.30;0.00;;;;;;;;;;10539827;27;20039;-76
2023/11/28 03:19:01;;;;;;;0.10;0.10;;;;;;;;;;10543327;27;20032;-76
2023/11/28 03:24:06;;;;;;;0.17;0.13;;;;;;;;;;10524911;27;20171;-76
2023/11/28 03:29:11;;;;;;;0.00;0.00;;;;;;;;;;10561665;27;20032;-76
2023/11/28 03:34:14;;;;;;;0.10;0.10;;;;;;;;;;10539013;27;20112;-77
2023/11/28 03:39:17;;;;;;;0.10;0.10;;;;;;;;;;10551791;27;20630;-76
2023/11/28 03:44:22;;;;;;;0.15;0.15;;;;;;;;;;10534540;27;20046;-76
2023/11/28 03:49:27;;;;;;;0.20;0.10;;;;;;;;;;10537804;27;20078;-76
2023/11/28 03:54:31;;;;;;;0.90;0.40;;;;;;;;;;10566163;27;20044;-77
2023/11/28 03:59:35;;;;;;;0.00;0.00;;;;;;;;;;10537142;28;20044;-77
2023/11/28 04:04:38;;;;;;;;;;;;;;;;;;10533690;27;20075;-77
2023/11/28 04:09:41;;;;;;;0.73;0.30;;;;;;;;;;10553345;27;20004;-76
2023/11/28 04:14:45;;;;;;;0.10;0.00;;;;;;;;;;10569237;27;20140;-76
2023/11/28 04:19:49;;;;;;;0.50;0.20;;;;;;;;;;10535987;28;20054;-77
2023/11/28 04:24:53;;;;;;;0.30;0.30;;;;;;;;;;10552082;27;20188;-77
2023/11/28 04:30:00;;;;;;;0.38;0.25;;;;;;;;;;10566393;27;20039;-77
2023/11/28 04:35:03;;;;;;;0.43;0.30;;;;;;;;;;10552551;28;20047;-76
2023/11/28 04:40:07;;;;;;;0.90;0.60;;;;;;;;;;10533293;28;20139;-78
2023/11/28 04:45:13;;;;;;;0.40;0.40;;;;;;;;;;10530160;27;20039;-78
2023/11/28 04:50:16;;;;;;;0.73;0.50;;;;;;;;;;10553119;27;20511;-77
2023/11/28 04:55:19;;;;;;;0.57;0.50;;;;;;;;;;10516718;27;20138;-78
2023/11/28 05:00:24;;;;;;;0.80;0.50;;;;;;;;;;10537934;27;20515;-78
2023/11/28 05:05:27;;;;;;;1.38;0.55;;;;;;;;;;10554899;28;20046;-78
2023/11/28 05:10:29;;;;;;;2.35;0.38;;;;;;;;;;10541435;28;20039;-77
2023/11/28 05:15:37;;;;;;;0.15;0.15;;;;;;;;;;10537183;28;20213;-77
2023/11/28 05:20:39;;;;;;;0.43;0.43;;;;;;;;;;10551753;28;20685;-76
2023/11/28 05:25:42;;;;;;;1.58;0.82;;;;;;;;;;10531957;28;20059;-76
2023/11/28 05:30:47;;;;;;;1.15;0.60;;;;;;;;;;10534606;28;20032;-77
2023/11/28 05:35:57;;;;;;;0.25;0.15;;;;;;;;;;10516617;28;20044;-77
2023/11/28 05:41:00;;;;;;;0.45;0.45;;;;;;;;;;10552922;28;20042;-76
2023/11/28 05:46:05;;;;;;;0.60;0.60;;;;;;;;;;10565788;27;20438;-78
2023/11/28 05:51:09;;;;;;;0.50;0.38;;;;;;;;;;10517502;28;20044;-77
2023/11/28 05:56:16;;;;;;;0.40;0.40;;;;;;;;;;10529463;28;20055;-76
2023/11/28 06:01:20;;;;;;;0.55;0.25;;;;;;;;;;10527805;28;20067;-76
2023/11/28 06:06:24;;;;;;;0.30;0.30;;;;;;;;;;10532696;28;20125;-76
2023/11/28 06:11:27;;;;;;;0.47;0.35;;;;;;;;;;10542281;27;20446;-75
2023/11/28 06:16:32;;;;;;;0.45;0.25;;;;;;;;;;10544917;27;20142;-75
2023/11/28 06:21:35;;;;;;;0.30;0.30;;;;;;;;;;10544547;27;20453;-76
2023/11/28 06:26:40;;;;;;;0.40;0.15;;;;;;;;;;10545406;27;20048;-77
2023/11/28 06:31:44;;;;;;;0.20;0.20;;;;;;;;;;10557579;27;20081;-77
2023/11/28 06:36:48;;;;;;;0.40;0.40;;;;;;;;;;10535134;28;20036;-76
2023/11/28 06:41:51;;;;;;;0.35;0.30;;;;;;;;;;10555475;27;20043;-75
2023/11/28 06:46:56;;;;;;;1.27;0.40;;;;;;;;;;10575996;27;20508;-76
2023/11/28 06:52:05;;;;;;;0.80;0.50;;;;;;;;;;10555238;27;20381;-76
2023/11/28 06:57:08;;;;;;;0.22;0.22;;;;;;;;;;10557812;27;20464;-77
2023/11/28 07:02:13;;;;;;;1.23;0.80;;;;;;;;;;10537342;27;20047;-76
2023/11/28 07:07:16;;;;;;;0.50;0.50;;;;;;;;;;10540795;27;20360;-76
2023/11/28 07:12:19;;;;;;;1.67;0.82;;;;;;;;;;10554359;27;20108;-75
2023/11/28 07:17:25;;;;;;;0.30;0.30;;;;;;;;;;10535376;27;20877;-76
2023/11/28 07:22:28;;;;;;;0.98;0.80;;;;;;;;;;10552716;27;20426;-76
2023/11/28 07:27:32;;;;;;;1.48;0.85;;;;;;;;;;10536162;27;20044;-76
2023/11/28 07:32:36;;;;;;;2.78;0.95;;;;;;;;;;10552314;27;20036;-75
2023/11/28 07:37:40;;;;;;;2.65;1.17;;;;;;;;;;10555257;27;20404;-77
2023/11/28 07:42:44;;;;;;;1.27;0.83;;;;;;;;;;10547605;27;20488;-75
2023/11/28 07:47:48;;;;;;;1.58;0.90;;;;;;;;;;10539714;27;20313;-77
2023/11/28 07:52:52;;;;;;;1.88;0.70;;;;;;;;;;10516875;27;20420;-76
2023/11/28 07:57:55;;;;;;;1.73;0.70;;;;;;;;;;10555333;27;20090;-77
2023/11/28 08:03:02;;;;;;;1.15;0.75;;;;;;;;;;10522942;27;20404;-76
2023/11/28 08:08:06;;;;;;;1.10;1.00;;;;;;;;;;10559701;27;20031;-76
2023/11/28 08:13:11;;;;;;;2.05;1.42;;;;;;;;;;10536598;28;20039;-76
2023/11/28 08:18:16;;;;;;;1.63;1.08;;;;;;;;;;10539890;27;20446;-76
2023/11/28 08:23:22;;;;;;;1.73;1.10;;;;;;;;;;10539477;28;21395;-77
2023/11/28 08:28:26;;;;;;;0.40;0.40;;;;;;;;;;10540831;27;20125;-77
2023/11/28 08:33:34;;;;;;;1.00;0.90;;;;;;;;;;10552169;27;20437;-77
2023/11/28 08:38:38;;;;;;;0.60;0.60;;;;;;;;;;10552614;27;20052;-77
2023/11/28 08:43:42;;;;;;;1.00;0.90;;;;;;;;;;10558175;27;20059;-77
2023/11/28 08:48:46;;;;;;;0.45;0.45;;;;;;;;;;10552435;28;20396;-76
2023/11/28 08:53:49;;;;;;;;;;;;;;;;;;10552710;27;20348;-76
2023/11/28 08:58:53;;;;;;;0.65;0.52;;;;;;;;;;10557877;27;19934;-76
2023/11/28 09:04:00;;;;;;;0.40;0.40;;;;;;;;;;10552418;27;20037;-77
2023/11/28 09:09:04;;;;;;;0.95;0.68;;;;;;;;;;10517825;28;20039;-79
2023/11/28 09:14:07;;;;;;;0.93;0.60;;;;;;;;;;10551108;28;20039;-77
2023/11/28 09:19:18;;;;;;;0.47;0.47;;;;;;;;;;10525142;27;20086;-77
2023/11/28 09:24:21;;;;;;;1.33;0.75;;;;;;;;;;10533414;28;20052;-77
2023/11/28 09:29:24;;;;;;;0.55;0.55;;;;;;;;;;10530437;27;20047;-78
2023/11/28 09:34:28;;;;;;;1.20;0.60;;;;;;;;;;10516285;28;20063;-76
2023/11/28 09:39:31;;;;;;;1.13;0.60;;;;;;;;;;10529167;28;20070;-78
2023/11/28 09:44:35;;;;;;;0.75;0.55;;;;;;;;;;10529932;28;20512;-78
2023/11/28 09:49:38;;;;;;;;;;;;;;;;;;10536458;28;20132;-77
2023/11/28 09:54:45;;;;;;;4.40;0.90;;;;;;;;;;10552251;28;19930;-77
2023/11/28 09:59:54;;;;;;;0.90;0.47;;;;;;;;;;10551768;28;20513;-77
2023/11/28 10:04:59;;;;;;;0.43;0.40;;;;;;;;;;10548373;28;20413;-77
2023/11/28 10:10:09;;;;;;;0.50;0.50;;;;;;;;;;10552829;28;20039;-78
2023/11/28 10:15:13;;;;;;;0.40;0.32;;;;;;;;;;10533119;28;20055;-77
2023/11/28 10:20:15;;;;;;;0.90;0.60;;;;;;;;;;10549841;28;20055;-76
2023/11/28 10:25:21;;;;;;;0.53;0.40;;;;;;;;;;10517596;28;20680;-77
2023/11/28 10:30:24;;;;;;;0.30;0.30;;;;;;;;;;10550205;28;20372;-78
2023/11/28 10:35:42;;;;;;;2.28;0.50;;;;;;;;;;10554092;28;20108;-77
2023/11/28 10:40:48;;;;;;;0.50;0.40;;;;;;;;;;10570325;27;20386;-79
2023/11/28 10:45:54;;;;;;;0.50;0.50;;;;;;;;;;10551538;28;20048;-77
2023/11/28 10:50:57;;;;;;;0.60;0.60;;;;;;;;;;10562916;27;20486;-78
2023/11/28 10:56:01;;;;;;;0.95;0.50;;;;;;;;;;10569439;27;20071;-76
2023/11/28 11:01:05;;;;;;;0.75;0.63;;;;;;;;;;10540255;27;20046;-76
2023/11/28 11:06:08;;;;;;;1.52;0.70;;;;;;;;;;10572734;27;20047;-76
2023/11/28 11:11:13;;;;;;;0.73;0.73;;;;;;;;;;10542091;28;20055;-77
2023/11/28 11:16:23;;;;;;;1.48;0.90;;;;;;;;;;10565055;27;20043;-76
2023/11/28 11:21:29;;;;;;;0.95;0.90;;;;;;;;;;10561831;27;20040;-76
2023/11/28 11:26:37;;;;;;;1.50;1.10;;;;;;;;;;10539970;27;20082;-77
2023/11/28 11:31:41;;;;;;;1.15;0.90;;;;;;;;;;10571281;27;20044;-77
2023/11/28 11:36:44;;;;;;;1.03;0.80;;;;;;;;;;10554339;27;20039;-77
2023/11/28 11:41:49;;;;;;;1.92;1.02;;;;;;;;;;10537521;28;20031;-77
2023/11/28 11:46:52;;;;;;;2.83;0.75;;;;;;;;;;10543891;28;20548;-76
2023/11/28 11:51:57;;;;;;;0.68;0.60;;;;;;;;;;10557123;27;20047;-78
2023/11/28 11:57:01;;;;;;;0.87;0.50;;;;;;;;;;10533220;27;20108;-77
2023/11/28 12:02:04;;;;;;;1.10;0.80;;;;;;;;;;10535552;27;20361;-77
2023/11/28 12:07:09;;;;;;;0.60;0.60;;;;;;;;;;10555193;28;20569;-77
2023/11/28 12:12:12;;;;;;;;;;;;;;;;;;10541760;27;20107;-77
2023/11/28 12:17:20;;;;;;;1.90;0.87;;;;;;;;;;10556167;27;19928;-77
2023/11/28 12:22:24;;;;;;;2.22;1.00;;;;;;;;;;10556215;27;20040;-77
2023/11/28 12:27:27;;;;;;;1.20;1.03;;;;;;;;;;10537448;28;20120;-77
2023/11/28 12:32:32;;;;;;;2.58;0.95;;;;;;;;;;10522977;28;20618;-77
2023/11/28 12:37:35;;;;;;;1.35;1.25;;;;;;;;;;10555168;27;20035;-77
2023/11/28 12:42:43;;;;;;;3.58;1.10;;;;;;;;;;10551255;27;20052;-77
2023/11/28 12:47:49;;;;;;;1.20;1.10;;;;;;;;;;10566014;27;20036;-76
2023/11/28 12:52:52;;;;;;;1.53;1.27;;;;;;;;;;10536216;27;20089;-77
2023/11/28 12:57:56;;;;;;;1.40;0.90;;;;;;;;;;10535708;27;20093;-77
2023/11/28 13:03:01;;;;;;;1.20;1.10;;;;;;;;;;10550238;27;20040;-77
2023/11/28 13:08:04;;;;;;;1.38;1.27;;;;;;;;;;10552442;27;20120;-76
2023/11/28 13:13:07;;;;;;;2.27;1.40;;;;;;;;;;10538827;27;20113;-77
2023/11/28 13:18:22;;;;;;;1.40;1.20;;;;;;;;;;10552686;27;20518;-77
2023/11/28 13:23:25;;;;;;;2.03;1.20;;;;;;;;;;10533010;27;20028;-76
2023/11/28 13:28:30;;;;;;;2.10;1.27;;;;;;;;;;10533868;28;20039;-75
2023/11/28 13:33:34;;;;;;;1.75;1.25;;;;;;;;;;10550584;28;20170;-76
2023/11/28 13:38:39;;;;;;;1.67;1.10;;;;;;;;;;10537925;27;20126;-75
2023/11/28 13:43:43;;;;;;;2.43;1.37;;;;;;;;;;10535960;28;20066;-76
2023/11/28 13:48:49;;;;;;;2.20;1.40;;;;;;;;;;10531508;28;20036;-76
2023/11/28 13:53:54;;;;;;;3.43;1.97;;;;;;;;;;10552610;28;20123;-76
2023/11/28 13:58:58;;;;;;;2.17;1.63;;;;;;;;;;10553157;28;20051;-76
2023/11/28 14:04:03;;;;;;;1.67;1.30;;;;;;;;;;10531685;28;20137;-77
2023/11/28 14:09:08;;;;;;;2.20;1.70;;;;;;;;;;10551323;28;20047;-76
2023/11/28 14:14:11;;;;;;;4.03;1.67;;;;;;;;;;10532175;28;20035;-77
2023/11/28 14:19:18;;;;;;;2.70;1.63;;;;;;;;;;10534174;28;20130;-76
2023/11/28 14:24:21;;;;;;;2.07;1.30;;;;;;;;;;10532214;28;20501;-76
2023/11/28 14:29:25;;;;;;;1.93;1.30;;;;;;;;;;10533743;28;20406;-77
2023/11/28 14:34:29;;;;;;;1.60;1.30;;;;;;;;;;10540978;27;20062;-77
2023/11/28 14:39:32;;;;;;;1.23;1.10;;;;;;;;;;10539931;28;20051;-78
2023/11/28 14:44:35;;;;;;;2.10;1.70;;;;;;;;;;10561585;27;20048;-77
2023/11/28 14:49:40;;;;;;;2.23;1.40;;;;;;;;;;10545258;27;20453;-78
2023/11/28 14:54:43;;;;;;;2.27;1.60;;;;;;;;;;10556399;27;20027;-77
2023/11/28 14:59:46;;;;;;;2.60;1.57;;;;;;;;;;10556331;27;20083;-77
2023/11/28 15:04:52;;;;;;;2.22;1.50;;;;;;;;;;10560030;27;20579;-76
2023/11/28 15:09:55;;;;;;;3.13;1.63;;;;;;;;;;10525922;27;20370;-77
2023/11/28 15:14:58;;;;;;;2.57;1.60;;;;;;;;;;10562631;27;20047;-77
2023/11/28 15:20:02;;;;;;;2.53;1.50;;;;;;;;;;10544352;27;20148;-76
2023/11/28 15:25:07;;;;;;;3.30;1.30;;;;;;;;;;10558727;27;20065;-76
2023/11/28 15:30:10;;;;;;;2.05;0.82;;;;;;;;;;10524899;28;20220;-78
2023/11/28 15:35:14;;;;;;;;;;;;;;;;;;10540236;27;20078;-76
2023/11/28 15:40:21;;;;;;;2.88;1.50;;;;;;;;;;10559683;27;19920;-76
2023/11/28 15:45:25;;;;;;;2.93;1.73;;;;;;;;;;10540657;27;20487;-76
2023/11/28 15:50:30;;;;;;;3.80;1.87;;;;;;;;;;10553244;27;20228;-76
2023/11/28 15:55:35;;;;;;;2.60;1.73;;;;;;;;;;10535978;27;20086;-75
2023/11/28 16:00:38;;;;;;;3.20;1.90;;;;;;;;;;10555281;27;20062;-76
2023/11/28 16:05:41;;;;;;;2.93;1.97;;;;;;;;;;10555413;27;20168;-76
2023/11/28 16:10:47;;;;;;;2.00;1.20;;;;;;;;;;10539159;27;20059;-75
2023/11/28 16:15:50;;;;;;;4.00;2.33;;;;;;;;;;10556353;27;20165;-76
2023/11/28 16:20:54;;;;;;;3.67;2.55;;;;;;;;;;10549635;27;20205;-77
2023/11/28 16:25:58;;;;;;;3.30;2.03;;;;;;;;;;10532498;28;20043;-76
2023/11/28 16:31:01;;;;;;;4.63;2.50;;;;;;;;;;10553121;28;20189;-78
2023/11/28 16:36:10;;;;;;;5.40;3.00;;;;;;;;;;10552005;27;20055;-76
2023/11/28 16:41:15;;;;;;;3.40;2.07;;;;;;;;;;10534686;27;20210;-76
2023/11/28 16:46:19;;;;;;;5.87;2.30;;;;;;;;;;10513831;27;20119;-77
2023/11/28 16:51:24;;;;;;;6.23;2.87;;;;;;;;;;10534543;28;20047;-77
2023/11/28 16:56:30;;;;;;;6.03;2.90;;;;;;;;;;10557235;27;20154;-77
2023/11/28 17:01:33;;;;;;;6.00;3.13;;;;;;;;;;10538891;27;20067;-77
2023/11/28 17:06:36;;;;;;;6.90;3.60;;;;;;;;;;10544726;28;20039;-77
2023/11/28 17:11:41;;;;;;;4.25;2.35;;;;;;;;;;10516836;27;20066;-77
2023/11/28 17:16:43;;;;;;;;;;;;;;;;;;10540479;27;20396;-77
2023/11/28 17:21:47;;;;;;;8.63;3.93;;;;;;;;;;10553107;27;19924;-76
2023/11/28 17:26:52;;;;;;;7.78;3.85;;;;;;;;;;10536643;27;20481;-77
2023/11/28 17:31:57;;;;;;;6.53;3.20;;;;;;;;;;10548430;28;20047;-76
2023/11/28 17:37:01;;;;;;;4.93;3.07;;;;;;;;;;10553563;27;20048;-76
2023/11/28 17:42:05;;;;;;;5.43;2.90;;;;;;;;;;10532760;28;20114;-76
2023/11/28 17:47:08;;;;;;;5.03;2.77;;;;;;;;;;10550729;28;20120;-77
2023/11/28 17:52:11;;;;;;;5.27;3.10;;;;;;;;;;10532664;28;20391;-76
2023/11/28 17:57:16;;;;;;;5.43;2.87;;;;;;;;;;10528724;28;20046;-76
2023/11/28 18:02:19;;;;;;;7.53;3.93;;;;;;;;;;10533840;28;20530;-76
2023/11/28 18:07:23;;;;;;;7.80;3.90;;;;;;;;;;10520479;27;20039;-76
2023/11/28 18:12:29;;;;;;;5.90;3.33;;;;;;;;;;10553252;28;20512;-78
2023/11/28 18:17:32;;;;;;;6.30;3.37;;;;;;;;;;10558298;27;20051;-77
2023/11/28 18:22:35;;;;;;;8.63;4.37;;;;;;;;;;10552216;27;20059;-75
2023/11/28 18:27:41;;;;;;;7.20;3.60;;;;;;;;;;10536116;27;20571;-77
2023/11/28 18:32:44;;;;;;;7.60;4.03;;;;;;;;;;10549422;27;20090;-76
2023/11/28 18:37:48;;;;;;;7.93;4.10;;;;;;;;;;10536039;27;20051;-76
2023/11/28 18:42:52;;;;;;;8.93;3.73;;;;;;;;;;10521283;27;20092;-75
2023/11/28 18:47:56;;;;;;;8.07;3.67;;;;;;;;;;10540302;27;20043;-76
2023/11/28 18:52:58;;;;;;;8.30;4.25;;;;;;;;;;10532333;28;20503;-76
2023/11/28 18:58:04;;;;;;;9.07;4.13;;;;;;;;;;10533309;27;20051;-78
2023/11/28 19:03:06;;;;;;;7.47;3.87;;;;;;;;;;10550627;27;20047;-76
2023/11/28 19:08:13;;;;;;;8.17;3.93;;;;;;;;;;10540260;27;20174;-76
2023/11/28 19:13:17;;;;;;;7.57;3.03;;;;;;;;;;10546041;27;20105;-76
2023/11/28 19:18:21;;;;;;;9.57;5.10;;;;;;;;;;10550806;27;20435;-77
2023/11/28 19:23:24;;;;;;;12.10;5.60;;;;;;;;;;10532966;27;20036;-76
2023/11/28 19:28:29;;;;;;;9.50;4.57;;;;;;;;;;10538735;27;20074;-77
2023/11/28 19:33:33;;;;;;;10.53;4.43;;;;;;;;;;10537210;27;20161;-76
2023/11/28 19:38:37;;;;;;;13.45;5.40;;;;;;;;;;10552752;27;20039;-77
2023/11/28 19:43:42;;;;;;;11.43;4.90;;;;;;;;;;10535058;27;20091;-76
2023/11/28 19:48:45;;;;;;;10.70;4.20;;;;;;;;;;10553478;27;20501;-76
2023/11/28 19:53:49;;;;;;;9.48;4.97;;;;;;;;;;10533075;28;20500;-78
2023/11/28 19:58:53;;;;;;;12.97;5.47;;;;;;;;;;10534384;27;21636;-77
2023/11/28 20:03:56;;;;;;;10.87;5.47;;;;;;;;;;10538507;27;20035;-76
2023/11/28 20:09:03;;;;;;;12.80;5.70;;;;;;;;;;10553226;27;20051;-77
2023/11/28 20:14:08;;;;;;;7.60;3.30;;;;;;;;;;10538891;28;20042;-78
2023/11/28 20:19:14;;;;;;;13.47;4.87;;;;;;;;;;10569318;28;20409;-78
2023/11/28 20:24:17;;;;;;;14.23;6.17;;;;;;;;;;10549902;27;20043;-78
2023/11/28 20:29:21;;;;;;;15.03;5.83;;;;;;;;;;10545040;28;20057;-77
2023/11/28 20:34:25;;;;;;;15.82;5.72;;;;;;;;;;10548429;27;20717;-77
2023/11/28 20:39:29;;;;;;;;;;;;;;;;;;10566580;27;20035;-77
2023/11/28 20:44:33;;;;;;;15.50;5.97;;;;;;;;;;10550444;27;19959;-76
2023/11/28 20:49:36;;;;;;;16.97;5.87;;;;;;;;;;10545348;28;20035;-78
2023/11/28 20:54:40;;;;;;;13.60;5.47;;;;;;;;;;10568158;27;20039;-77
2023/11/28 20:59:45;;;;;;;13.37;5.53;;;;;;;;;;10561582;28;20039;-77
2023/11/28 21:04:48;;;;;;;16.97;5.63;;;;;;;;;;10547838;27;20035;-77
2023/11/28 21:09:51;;;;;;;15.23;5.57;;;;;;;;;;10552868;28;20130;-77
2023/11/28 21:14:56;;;;;;;12.90;4.70;;;;;;;;;;10568459;28;20031;-78
2023/11/28 21:19:59;;;;;;;14.90;5.87;;;;;;;;;;10568098;27;20552;-76
2023/11/28 21:25:03;;;;;;;12.47;5.33;;;;;;;;;;10549839;28;20050;-77
2023/11/28 21:30:08;;;;;;;14.43;4.93;;;;;;;;;;10552374;27;20088;-77
2023/11/28 21:35:11;;;;;;;9.43;3.70;;;;;;;;;;10543225;28;20047;-77
2023/11/28 21:40:14;;;;;;;15.27;5.63;;;;;;;;;;10541518;28;20588;-77
2023/11/28 21:45:22;;;;;;;14.00;5.97;;;;;;;;;;10543658;28;20051;-76
2023/11/28 21:50:33;;;;;;;15.53;5.63;;;;;;;;;;10567757;27;20171;-76
2023/11/28 21:55:39;;;;;;;13.40;5.00;;;;;;;;;;10563036;28;20126;-77
2023/11/28 22:00:43;;;;;;;19.30;5.57;;;;;;;;;;10562454;28;20050;-78
2023/11/28 22:05:49;;;;;;;14.43;4.90;;;;;;;;;;10547090;28;20067;-78
2023/11/28 22:10:51;;;;;;;7.33;3.20;;;;;;;;;;10563159;28;20466;-77
2023/11/28 22:15:56;;;;;;;12.53;4.70;;;;;;;;;;10549506;28;20100;-78
2023/11/28 22:21:00;;;;;;;13.53;5.73;;;;;;;;;;10547933;28;20500;-78
2023/11/28 22:26:04;;;;;;;11.13;4.57;;;;;;;;;;10547846;28;20118;-76
2023/11/28 22:31:09;;;;;;;12.60;5.13;;;;;;;;;;10549781;28;20079;-76
2023/11/28 22:36:12;;;;;;;14.97;5.57;;;;;;;;;;10544121;28;20043;-77
2023/11/28 22:41:15;;;;;;;11.23;4.93;;;;;;;;;;10571083;28;20063;-77
2023/11/28 22:46:19;;;;;;;12.27;5.30;;;;;;;;;;10534371;28;20036;-76
2023/11/28 22:51:23;;;;;;;9.73;3.57;;;;;;;;;;10557668;27;20268;-77
2023/11/28 22:56:27;;;;;;;13.93;5.43;;;;;;;;;;10538827;27;20603;-77
2023/11/28 23:01:32;;;;;;;9.80;4.20;;;;;;;;;;10558613;27;20051;-77
2023/11/28 23:06:35;;;;;;;8.47;3.90;;;;;;;;;;10554576;27;20507;-77
2023/11/28 23:11:38;;;;;;;8.77;4.20;;;;;;;;;;10532238;27;20055;-77
2023/11/28 23:16:42;;;;;;;11.63;4.17;;;;;;;;;;10550643;27;20054;-77
2023/11/28 23:21:47;;;;;;;9.47;4.43;;;;;;;;;;10555206;27;20044;-76
2023/11/28 23:26:50;;;;;;;11.00;4.13;;;;;;;;;;10544157;27;20481;-76
2023/11/28 23:31:55;;;;;;;8.15;3.50;;;;;;;;;;10540169;27;20067;-77
2023/11/28 23:36:59;;;;;;;10.00;4.07;;;;;;;;;;10525084;27;20123;-78
2023/11/28 23:42:02;;;;;;;6.80;3.13;;;;;;;;;;10541049;27;20040;-77
2023/11/28 23:47:06;;;;;;;6.93;3.17;;;;;;;;;;10535573;27;20093;-76
2023/11/28 23:52:11;;;;;;;10.03;3.97;;;;;;;;;;10523994;27;20063;-77
2023/11/28 23:57:14;;;;;;;9.83;4.03;;;;;;;;;;10523879;27;20035;-78
